East Hubbardton, Vermont
Current Conditions -  °F | °C
As of 3:15 AM on Tuesday 21 Oct 2014 (Local Time) from KRUT Reporting Station
Overcast Overcast  
Wind Chill: 42°   Ceiling: 10000
Heat Index: 46°   Visibility: 10mi
Dew Point: 36°   Wind: 8mph
Humidity: 66%   Direction: 120°ESE
Pressure: 29.93"   Gusts: NA
Location:  43.6401°N, 73.1505°W
Report Text: KRUT 210715Z 12007KT 10SM OVC100 08/02 A2993 RMK AO1
Loading
Personal Weather Stations






























Interactive Weather Map
Tropical Storm Tracking
New forecast layout! Learn more

10-Day Weather Forecast

Advertisements
Track Severe Weather on mobile